Alida, Minnesota
Current Conditions -  °F | °C
As of 8:13 AM on Sunday 25 Jan 2015 (Local Time) from KBJI Reporting Station
Overcast Overcast  
Wind Chill: 15°   Ceiling: 1500
Heat Index: 15°   Visibility: 10mi
Dew Point:   Wind: 0mph
Humidity: 79%   Direction: NA
Pressure: 29.97"   Gusts: NA
Location:  47.4609°N, 95.2384°W
Report Text: KBJI 251413Z AUTO 00000KT 10SM OVC015 M10/M13 A2997 RMK AO2 T10961126
Loading
Personal Weather Stations






























Interactive Weather Map New forecast layout! Learn more

10-Day Weather Forecast

Advertisements
Track Severe Weather on mobile